Time;durP1;ratioP1;P1;durP2;ratioP2;P2;SDS_P1;SDS_P2;PMS_P1;PMS_P2;Temp;Humidity;BMP_temperature;BMP_pressure;BME280_temperature;BME280_humidity;BME280_pressure;Samples;Min_cycle;Max_cycle;Signal;HPM_P1;HPM_P2
2022/05/30 00:02:12;;;;;;;3.30;2.00;;;;;;;;;;4910914;28;20454;-61
2022/05/30 00:04:38;;;;;;;4.97;2.22;;;;;;;;;;4910565;28;20124;-61
2022/05/30 00:07:06;;;;;;;3.88;2.13;;;;;;;;;;4911409;28;20440;-61
2022/05/30 00:09:31;;;;;;;5.13;1.60;;;;;;;;;;4913589;28;20113;-63
2022/05/30 00:11:56;;;;;;;2.88;1.52;;;;;;;;;;4914845;28;20525;-61
2022/05/30 00:14:22;;;;;;;4.40;1.98;;;;;;;;;;4914605;28;20483;-61
2022/05/30 00:16:47;;;;;;;2.97;1.58;;;;;;;;;;4914061;28;20422;-61
2022/05/30 00:19:12;;;;;;;2.30;1.77;;;;;;;;;;4913660;28;20142;-61
2022/05/30 00:21:38;;;;;;;3.72;1.88;;;;;;;;;;4914137;28;20034;-61
2022/05/30 00:24:03;;;;;;;3.90;1.50;;;;;;;;;;4914303;28;20442;-61
2022/05/30 00:26:29;;;;;;;5.80;2.33;;;;;;;;;;4914671;28;20567;-61
2022/05/30 00:28:56;;;;;;;3.75;1.83;;;;;;;;;;4913887;28;20465;-61
2022/05/30 00:31:22;;;;;;;5.40;2.10;;;;;;;;;;4912897;28;20438;-61
2022/05/30 00:33:48;;;;;;;5.60;2.42;;;;;;;;;;4914801;28;20046;-61
2022/05/30 00:36:13;;;;;;;3.72;1.85;;;;;;;;;;4915066;28;20507;-61
2022/05/30 00:38:39;;;;;;;4.43;1.77;;;;;;;;;;4914070;28;20433;-61
2022/05/30 00:41:06;;;;;;;4.38;2.03;;;;;;;;;;4913252;28;20047;-61
2022/05/30 00:43:37;;;;;;;4.00;2.10;;;;;;;;;;4913657;28;20496;-61
2022/05/30 00:46:10;;;;;;;3.90;1.58;;;;;;;;;;4913489;28;20508;-61
2022/05/30 00:48:40;;;;;;;4.93;1.67;;;;;;;;;;4913438;28;20397;-62
2022/05/30 00:51:12;;;;;;;4.95;1.98;;;;;;;;;;4913718;28;20038;-61
2022/05/30 00:53:40;;;;;;;6.50;1.92;;;;;;;;;;4913436;28;20386;-61
2022/05/30 00:56:07;;;;;;;4.25;1.77;;;;;;;;;;4912294;28;20422;-61
2022/05/30 00:58:34;;;;;;;3.33;1.88;;;;;;;;;;4913490;28;20232;-61
2022/05/30 01:01:00;;;;;;;3.45;1.80;;;;;;;;;;4911223;28;20369;-61
2022/05/30 01:08:54;;;;;;;3.78;1.90;;;;;;;;;;4913359;28;20581;-61
2022/05/30 01:11:19;;;;;;;5.78;2.10;;;;;;;;;;4914401;28;20495;-61
2022/05/30 01:13:44;;;;;;;4.03;2.10;;;;;;;;;;4913255;28;20031;-61
2022/05/30 01:16:10;;;;;;;5.00;1.83;;;;;;;;;;4913194;28;20359;-62
2022/05/30 01:18:52;;;;;;;3.22;1.88;;;;;;;;;;4912842;28;20616;-61
2022/05/30 01:21:44;;;;;;;2.35;1.67;;;;;;;;;;4911599;28;20448;-61
2022/05/30 01:24:31;;;;;;;3.15;1.67;;;;;;;;;;4911912;28;20026;-62
2022/05/30 01:27:23;;;;;;;3.97;2.17;;;;;;;;;;4914981;28;20442;-62
2022/05/30 01:29:56;;;;;;;2.20;1.55;;;;;;;;;;4952119;28;20415;-61
2022/05/30 01:32:23;;;;;;;3.63;1.73;;;;;;;;;;4934157;28;20357;-62
2022/05/30 01:34:49;;;;;;;6.20;1.95;;;;;;;;;;4951804;28;20381;-61
2022/05/30 01:37:14;;;;;;;3.65;1.45;;;;;;;;;;4951361;28;20395;-61
2022/05/30 01:39:40;;;;;;;3.15;1.65;;;;;;;;;;4951468;28;20444;-62
2022/05/30 01:42:06;;;;;;;3.53;2.13;;;;;;;;;;4951871;28;20345;-62
2022/05/30 01:44:31;;;;;;;2.63;1.80;;;;;;;;;;4933492;28;20357;-61
2022/05/30 01:46:57;;;;;;;5.13;1.80;;;;;;;;;;4951131;28;20025;-61
2022/05/30 01:49:22;;;;;;;3.33;1.73;;;;;;;;;;4950936;28;20421;-62
2022/05/30 01:51:48;;;;;;;3.20;1.60;;;;;;;;;;4952249;28;20345;-61
2022/05/30 01:54:13;;;;;;;3.65;1.90;;;;;;;;;;4951135;28;20338;-62
2022/05/30 01:56:38;;;;;;;4.22;1.42;;;;;;;;;;4951113;28;20408;-61
2022/05/30 01:59:04;;;;;;;2.63;1.77;;;;;;;;;;4951195;28;20568;-61
2022/05/30 02:01:30;;;;;;;3.80;1.95;;;;;;;;;;4933842;28;20347;-61
2022/05/30 02:03:56;;;;;;;4.10;1.60;;;;;;;;;;4950921;28;20496;-60
2022/05/30 02:06:23;;;;;;;3.92;1.70;;;;;;;;;;4950842;28;20451;-62
2022/05/30 02:08:48;;;;;;;2.35;1.60;;;;;;;;;;4950514;28;20472;-61
2022/05/30 02:11:16;;;;;;;4.68;1.83;;;;;;;;;;4950994;28;20424;-61
2022/05/30 02:13:42;;;;;;;2.47;1.40;;;;;;;;;;4951253;28;20441;-60
2022/05/30 02:18:55;;;;;;;5.65;1.70;;;;;;;;;;4951756;28;20391;-61
2022/05/30 02:21:20;;;;;;;2.53;1.40;;;;;;;;;;4950447;28;20437;-61
2022/05/30 02:23:46;;;;;;;3.45;1.90;;;;;;;;;;4950812;28;20495;-61
2022/05/30 02:26:11;;;;;;;2.70;1.55;;;;;;;;;;4950245;28;20457;-61
2022/05/30 02:28:37;;;;;;;4.80;1.83;;;;;;;;;;4922456;28;20074;-62
2022/05/30 02:31:03;;;;;;;2.70;1.40;;;;;;;;;;4910991;28;20031;-61
2022/05/30 02:38:55;;;;;;;3.67;1.63;;;;;;;;;;4911574;28;20457;-61
2022/05/30 02:41:21;;;;;;;2.67;1.60;;;;;;;;;;4912034;28;20358;-61
2022/05/30 02:43:46;;;;;;;1.95;1.20;;;;;;;;;;4911828;28;20117;-61
2022/05/30 02:46:12;;;;;;;3.85;1.48;;;;;;;;;;4912362;28;20489;-62
2022/05/30 02:48:38;;;;;;;2.50;1.38;;;;;;;;;;4913357;28;20394;-61
2022/05/30 02:51:03;;;;;;;2.53;1.00;;;;;;;;;;4913032;28;20398;-62
2022/05/30 02:53:28;;;;;;;3.42;1.80;;;;;;;;;;4911820;28;20516;-61
2022/05/30 02:55:54;;;;;;;2.95;1.50;;;;;;;;;;4913916;28;20591;-61
2022/05/30 02:58:19;;;;;;;4.07;1.60;;;;;;;;;;4909095;28;20489;-62
2022/05/30 03:00:44;;;;;;;3.15;1.73;;;;;;;;;;4911767;28;20373;-61
2022/05/30 03:03:10;;;;;;;2.50;1.30;;;;;;;;;;4911156;28;20027;-61
2022/05/30 03:05:37;;;;;;;2.63;1.38;;;;;;;;;;4911373;28;20460;-62
2022/05/30 03:08:07;;;;;;;3.85;1.55;;;;;;;;;;4911568;28;20042;-60
2022/05/30 03:10:32;;;;;;;3.20;1.45;;;;;;;;;;4911678;28;20440;-61
2022/05/30 03:12:57;;;;;;;2.38;1.20;;;;;;;;;;4911735;28;20439;-62
2022/05/30 03:15:23;;;;;;;2.83;1.27;;;;;;;;;;4911803;28;20114;-61
2022/05/30 03:17:51;;;;;;;1.45;1.05;;;;;;;;;;4911040;28;20329;-61
2022/05/30 03:20:17;;;;;;;3.10;1.45;;;;;;;;;;4911357;28;20362;-61
2022/05/30 03:22:42;;;;;;;2.08;1.13;;;;;;;;;;4912305;28;20310;-62
2022/05/30 03:25:08;;;;;;;2.80;1.40;;;;;;;;;;4911663;28;20438;-61
2022/05/30 03:27:33;;;;;;;1.95;1.25;;;;;;;;;;4910826;28;20488;-61
2022/05/30 03:29:58;;;;;;;3.15;1.30;;;;;;;;;;4911064;28;20389;-61
2022/05/30 03:32:24;;;;;;;3.67;1.83;;;;;;;;;;4910959;28;20440;-61
2022/05/30 03:34:49;;;;;;;2.00;1.40;;;;;;;;;;4911167;28;20342;-61
2022/05/30 03:37:14;;;;;;;2.63;1.20;;;;;;;;;;4911308;28;20211;-60
2022/05/30 03:39:40;;;;;;;2.70;1.70;;;;;;;;;;4911472;28;20454;-61
2022/05/30 03:42:05;;;;;;;2.00;1.10;;;;;;;;;;4911354;28;20434;-61
2022/05/30 03:44:32;;;;;;;2.83;1.35;;;;;;;;;;4914954;28;20434;-61
2022/05/30 03:46:57;;;;;;;1.80;1.10;;;;;;;;;;4915552;28;20486;-61
2022/05/30 03:49:22;;;;;;;2.97;1.05;;;;;;;;;;4915683;28;20374;-61
2022/05/30 03:51:48;;;;;;;1.25;1.00;;;;;;;;;;4916328;28;20070;-61
2022/05/30 03:54:13;;;;;;;1.90;1.02;;;;;;;;;;4916106;28;20395;-61
2022/05/30 03:56:38;;;;;;;1.10;0.93;;;;;;;;;;4914903;28;20420;-62
2022/05/30 03:59:04;;;;;;;2.13;1.25;;;;;;;;;;4914364;28;20422;-61
2022/05/30 04:01:29;;;;;;;2.42;1.25;;;;;;;;;;4914356;28;20489;-62
2022/05/30 04:03:54;;;;;;;1.67;1.10;;;;;;;;;;4914624;28;20027;-61
2022/05/30 04:06:19;;;;;;;2.58;1.35;;;;;;;;;;4914477;28;20346;-61
2022/05/30 04:08:46;;;;;;;2.00;1.20;;;;;;;;;;4915825;28;20457;-62
2022/05/30 04:11:11;;;;;;;1.73;1.20;;;;;;;;;;4916349;28;20418;-61
2022/05/30 04:13:36;;;;;;;1.00;0.90;;;;;;;;;;4913767;28;20345;-61
2022/05/30 04:16:12;;;;;;;1.63;1.00;;;;;;;;;;4914359;28;20504;-62
2022/05/30 04:18:38;;;;;;;2.40;1.13;;;;;;;;;;4914169;28;20461;-61
2022/05/30 04:21:06;;;;;;;1.30;1.08;;;;;;;;;;4913800;28;20039;-61
2022/05/30 04:23:32;;;;;;;1.23;0.90;;;;;;;;;;4916448;28;20039;-61
2022/05/30 04:25:57;;;;;;;1.48;1.00;;;;;;;;;;4914056;28;20061;-61
2022/05/30 04:28:22;;;;;;;3.22;1.40;;;;;;;;;;4914233;28;20509;-62
2022/05/30 04:30:48;;;;;;;1.55;1.05;;;;;;;;;;4914029;28;20442;-61
2022/05/30 04:33:13;;;;;;;1.42;1.05;;;;;;;;;;4914036;28;20346;-62
2022/05/30 04:35:42;;;;;;;1.90;1.10;;;;;;;;;;4913767;28;20387;-61
2022/05/30 04:38:08;;;;;;;1.85;1.40;;;;;;;;;;4913960;28;20462;-61
2022/05/30 04:40:34;;;;;;;1.83;0.80;;;;;;;;;;4913989;28;20573;-61
2022/05/30 04:42:59;;;;;;;2.03;1.00;;;;;;;;;;4913782;28;20513;-61
2022/05/30 04:45:25;;;;;;;1.35;1.10;;;;;;;;;;4913707;28;20556;-61
2022/05/30 04:47:50;;;;;;;2.72;1.40;;;;;;;;;;4914072;28;20066;-61
2022/05/30 04:50:16;;;;;;;2.58;1.63;;;;;;;;;;4913388;28;20434;-61
2022/05/30 04:52:43;;;;;;;3.20;1.70;;;;;;;;;;4913877;28;20418;-61
2022/05/30 04:55:10;;;;;;;4.03;1.40;;;;;;;;;;4913612;28;20320;-62
2022/05/30 04:57:49;;;;;;;3.72;1.40;;;;;;;;;;4913798;28;20345;-61
2022/05/30 05:00:17;;;;;;;1.85;1.20;;;;;;;;;;4913370;28;20081;-61
2022/05/30 05:02:43;;;;;;;3.25;1.02;;;;;;;;;;4913506;28;20042;-62
2022/05/30 05:05:09;;;;;;;1.58;1.23;;;;;;;;;;4913427;28;20434;-60
2022/05/30 05:08:00;;;;;;;2.03;1.30;;;;;;;;;;4913413;28;20295;-60
2022/05/30 05:10:47;;;;;;;1.58;1.23;;;;;;;;;;4907828;28;20057;-62
2022/05/30 05:13:13;;;;;;;1.20;1.00;;;;;;;;;;4914236;28;20345;-61
2022/05/30 05:15:38;;;;;;;4.15;1.42;;;;;;;;;;4914122;28;20337;-61
2022/05/30 05:18:04;;;;;;;2.38;1.10;;;;;;;;;;4913877;28;20386;-62
2022/05/30 05:20:29;;;;;;;0.93;0.73;;;;;;;;;;4913359;28;20453;-61
2022/05/30 05:22:55;;;;;;;2.38;1.73;;;;;;;;;;4912745;28;20319;-61
2022/05/30 05:25:20;;;;;;;1.05;0.80;;;;;;;;;;4913182;28;20027;-61
2022/05/30 05:27:48;;;;;;;2.72;1.35;;;;;;;;;;4912972;28;20441;-61
2022/05/30 05:30:13;;;;;;;2.45;1.52;;;;;;;;;;4913681;28;20315;-62
2022/05/30 05:32:39;;;;;;;2.38;0.80;;;;;;;;;;4914160;28;20309;-63
2022/05/30 05:35:05;;;;;;;2.40;1.02;;;;;;;;;;4913749;28;20369;-61
2022/05/30 05:37:33;;;;;;;2.60;1.10;;;;;;;;;;4911112;28;20414;-62
2022/05/30 05:39:58;;;;;;;1.25;1.00;;;;;;;;;;4911522;28;20440;-61
2022/05/30 05:42:23;;;;;;;1.08;0.80;;;;;;;;;;4911630;28;20348;-63
2022/05/30 05:44:49;;;;;;;1.15;0.75;;;;;;;;;;4912843;28;20130;-61
2022/05/30 05:47:14;;;;;;;1.25;0.90;;;;;;;;;;4913116;28;20373;-61
2022/05/30 05:49:40;;;;;;;1.80;1.20;;;;;;;;;;4912677;28;20102;-61
2022/05/30 05:52:05;;;;;;;2.53;1.35;;;;;;;;;;4912526;28;20442;-61
2022/05/30 05:54:31;;;;;;;1.85;1.10;;;;;;;;;;4911568;28;20434;-62
2022/05/30 05:56:57;;;;;;;1.83;1.00;;;;;;;;;;4912621;28;20438;-61
2022/05/30 05:59:23;;;;;;;1.65;0.82;;;;;;;;;;4912250;28;20446;-61
2022/05/30 06:01:48;;;;;;;1.48;0.88;;;;;;;;;;4912287;28;20362;-62
2022/05/30 06:04:13;;;;;;;3.35;1.10;;;;;;;;;;4912798;28;20415;-62
2022/05/30 06:06:39;;;;;;;2.38;1.30;;;;;;;;;;4913704;28;20446;-61
2022/05/30 06:09:06;;;;;;;1.35;0.98;;;;;;;;;;4911965;28;20057;-61
2022/05/30 06:11:32;;;;;;;1.20;0.80;;;;;;;;;;4912347;28;20027;-61
2022/05/30 06:13:57;;;;;;;2.20;1.38;;;;;;;;;;4913192;28;20500;-61
2022/05/30 06:16:25;;;;;;;1.88;1.25;;;;;;;;;;4912919;28;20346;-61
2022/05/30 06:18:52;;;;;;;1.67;1.00;;;;;;;;;;4912299;28;20406;-62
2022/05/30 06:21:18;;;;;;;2.83;1.00;;;;;;;;;;4911854;28;20358;-61
2022/05/30 06:23:45;;;;;;;2.03;1.20;;;;;;;;;;4912951;28;20346;-61
2022/05/30 06:26:11;;;;;;;1.52;1.02;;;;;;;;;;4913004;28;20326;-62
2022/05/30 06:28:37;;;;;;;1.88;1.17;;;;;;;;;;4911977;28;20082;-61
2022/05/30 06:31:13;;;;;;;1.20;1.00;;;;;;;;;;4912204;28;20454;-61
2022/05/30 06:33:39;;;;;;;1.45;1.00;;;;;;;;;;4911983;28;20430;-63
2022/05/30 06:36:09;;;;;;;1.35;0.98;;;;;;;;;;4911830;28;20462;-62
2022/05/30 06:38:35;;;;;;;1.52;1.02;;;;;;;;;;4911673;28;20465;-61
2022/05/30 06:41:10;;;;;;;2.15;0.90;;;;;;;;;;4911653;28;20438;-62
2022/05/30 06:43:35;;;;;;;1.58;1.05;;;;;;;;;;4911427;28;20438;-64
2022/05/30 06:46:02;;;;;;;1.90;1.10;;;;;;;;;;4911783;28;20512;-62
2022/05/30 06:48:28;;;;;;;1.92;0.82;;;;;;;;;;4911796;28;20446;-61
2022/05/30 06:50:53;;;;;;;3.10;1.30;;;;;;;;;;4911556;28;20449;-61
2022/05/30 06:53:19;;;;;;;2.85;1.10;;;;;;;;;;4911650;28;20089;-61
2022/05/30 06:55:49;;;;;;;1.73;1.00;;;;;;;;;;4912974;28;20443;-61
2022/05/30 06:58:15;;;;;;;1.77;0.90;;;;;;;;;;4911165;28;20327;-62
2022/05/30 07:00:44;;;;;;;2.50;1.13;;;;;;;;;;4911489;28;20337;-62
2022/05/30 07:03:10;;;;;;;1.70;1.00;;;;;;;;;;4912224;28;20406;-62
2022/05/30 07:05:36;;;;;;;2.90;1.30;;;;;;;;;;4911550;28;20327;-61
2022/05/30 07:08:02;;;;;;;1.33;0.90;;;;;;;;;;4910627;28;20339;-62
2022/05/30 07:10:29;;;;;;;1.85;1.23;;;;;;;;;;4911652;28;20349;-62
2022/05/30 07:12:55;;;;;;;1.65;1.10;;;;;;;;;;4911014;28;20508;-61
2022/05/30 07:15:20;;;;;;;2.25;1.27;;;;;;;;;;4911525;28;20517;-62
2022/05/30 07:17:45;;;;;;;3.05;1.75;;;;;;;;;;4910871;28;20300;-61
2022/05/30 07:20:11;;;;;;;8.88;4.00;;;;;;;;;;4910844;28;20346;-62
2022/05/30 07:22:37;;;;;;;6.35;3.20;;;;;;;;;;4911440;28;20023;-61
2022/05/30 07:25:02;;;;;;;5.18;2.50;;;;;;;;;;4911300;28;20457;-62
2022/05/30 07:27:29;;;;;;;6.63;2.65;;;;;;;;;;4910985;28;20536;-62
2022/05/30 07:29:54;;;;;;;5.75;2.10;;;;;;;;;;4910881;28;20109;-62
2022/05/30 07:32:19;;;;;;;3.50;2.05;;;;;;;;;;4910958;28;20422;-62
2022/05/30 07:34:45;;;;;;;2.72;1.75;;;;;;;;;;4911125;28;20521;-61
2022/05/30 07:37:10;;;;;;;5.50;2.00;;;;;;;;;;4911275;28;20427;-61
2022/05/30 07:39:39;;;;;;;2.70;1.75;;;;;;;;;;4911215;28;20516;-63
2022/05/30 07:42:05;;;;;;;4.45;2.00;;;;;;;;;;4911644;28;20385;-61
2022/05/30 07:44:31;;;;;;;3.20;1.63;;;;;;;;;;4910944;28;20442;-61
2022/05/30 07:46:57;;;;;;;3.78;1.75;;;;;;;;;;4894125;28;20535;-62
2022/05/30 07:49:23;;;;;;;2.95;1.45;;;;;;;;;;4911326;28;20500;-62
2022/05/30 07:51:48;;;;;;;2.30;1.52;;;;;;;;;;4910592;28;20023;-62
2022/05/30 07:54:14;;;;;;;5.55;1.58;;;;;;;;;;4911143;28;20370;-61
2022/05/30 07:56:39;;;;;;;3.35;1.77;;;;;;;;;;4910631;28;20534;-61
2022/05/30 07:59:05;;;;;;;3.05;1.60;;;;;;;;;;4910922;28;20520;-61
2022/05/30 08:01:30;;;;;;;2.95;1.88;;;;;;;;;;4910560;28;20035;-62
2022/05/30 08:03:55;;;;;;;3.95;1.50;;;;;;;;;;4911057;28;20452;-62
2022/05/30 08:06:24;;;;;;;2.40;1.30;;;;;;;;;;4912465;28;20437;-62
2022/05/30 08:08:49;;;;;;;2.90;1.52;;;;;;;;;;4911031;28;20461;-62
2022/05/30 08:11:15;;;;;;;2.92;1.40;;;;;;;;;;4910567;28;20143;-61
2022/05/30 08:13:41;;;;;;;3.35;1.75;;;;;;;;;;4910807;28;20165;-62
2022/05/30 08:16:07;;;;;;;4.38;1.38;;;;;;;;;;4911461;28;20434;-61
2022/05/30 08:18:33;;;;;;;2.22;1.40;;;;;;;;;;4910573;28;20508;-62
2022/05/30 08:20:59;;;;;;;2.90;1.50;;;;;;;;;;4911623;28;20339;-61
2022/05/30 08:23:25;;;;;;;2.72;1.67;;;;;;;;;;4911158;28;20370;-62
2022/05/30 08:25:51;;;;;;;5.07;1.70;;;;;;;;;;4912358;28;20426;-61
2022/05/30 08:28:16;;;;;;;2.13;1.27;;;;;;;;;;4910755;28;20366;-62
2022/05/30 08:30:42;;;;;;;1.90;1.30;;;;;;;;;;4913130;28;20212;-61
2022/05/30 08:33:14;;;;;;;2.60;1.38;;;;;;;;;;4914659;28;20481;-62
2022/05/30 08:35:40;;;;;;;3.47;1.73;;;;;;;;;;4914096;28;20512;-65
2022/05/30 08:38:05;;;;;;;5.03;1.70;;;;;;;;;;4915281;28;20461;-63
2022/05/30 08:43:29;;;;;;;4.55;1.67;;;;;;;;;;4915188;28;20060;-62
2022/05/30 08:46:10;;;;;;;4.47;2.05;;;;;;;;;;4913789;28;20027;-61
2022/05/30 08:49:03;;;;;;;2.88;1.60;;;;;;;;;;4912322;28;20458;-61
2022/05/30 08:51:37;;;;;;;4.43;2.20;;;;;;;;;;4911962;28;20341;-63
2022/05/30 08:54:02;;;;;;;2.85;1.70;;;;;;;;;;4914047;28;20496;-62
2022/05/30 08:56:34;;;;;;;4.03;1.90;;;;;;;;;;4913839;28;20501;-62
2022/05/30 08:59:23;;;;;;;4.95;2.20;;;;;;;;;;4912358;28;20418;-62
2022/05/30 09:02:03;;;;;;;3.85;1.83;;;;;;;;;;4912192;28;20067;-61
2022/05/30 09:04:39;;;;;;;3.13;1.92;;;;;;;;;;4914035;28;20334;-62
2022/05/30 09:07:09;;;;;;;3.03;1.95;;;;;;;;;;4911809;28;20118;-61
2022/05/30 09:09:43;;;;;;;2.88;2.03;;;;;;;;;;4913566;28;20461;-62
2022/05/30 09:12:17;;;;;;;5.20;1.95;;;;;;;;;;4913695;28;20425;-62
2022/05/30 09:14:49;;;;;;;5.00;2.30;;;;;;;;;;4913661;28;20389;-63
2022/05/30 09:17:27;;;;;;;3.08;2.13;;;;;;;;;;4913111;28;20054;-62
2022/05/30 09:19:54;;;;;;;7.15;1.77;;;;;;;;;;4913017;28;20034;-62
2022/05/30 09:22:21;;;;;;;2.78;1.60;;;;;;;;;;4911627;28;20396;-62
2022/05/30 09:25:55;;;;;;;2.35;1.70;;;;;;;;;;4926660;28;20342;-61
2022/05/30 09:27:32;;;;;;;12.75;2.25;;;;;;;;;;4922057;28;20046;-62
2022/05/30 09:30:00;;;;;;;4.68;2.42;;;;;;;;;;4951373;28;20488;-62
2022/05/30 09:32:37;;;;;;;3.38;1.77;;;;;;;;;;4951287;28;20451;-62
2022/05/30 09:35:29;;;;;;;3.78;1.60;;;;;;;;;;4950502;28;20674;-62
2022/05/30 09:38:05;;;;;;;3.63;2.25;;;;;;;;;;4951029;28;20396;-62
2022/05/30 09:40:45;;;;;;;4.05;1.98;;;;;;;;;;4950995;28;20056;-62
2022/05/30 09:43:25;;;;;;;2.78;1.75;;;;;;;;;;4951733;28;20364;-61
2022/05/30 09:45:51;;;;;;;4.45;1.98;;;;;;;;;;4951088;28;20453;-62
2022/05/30 09:48:19;;;;;;;11.93;2.38;;;;;;;;;;4949767;28;20442;-62
2022/05/30 09:50:46;;;;;;;3.17;1.60;;;;;;;;;;4951125;28;20429;-63
2022/05/30 09:53:12;;;;;;;5.20;1.98;;;;;;;;;;4951070;28;20330;-62
2022/05/30 09:55:46;;;;;;;3.47;1.83;;;;;;;;;;4951736;28;20349;-62
2022/05/30 09:58:12;;;;;;;3.55;1.70;;;;;;;;;;4934491;28;20417;-62
2022/05/30 10:00:57;;;;;;;2.42;1.33;;;;;;;;;;4950957;28;20499;-62
2022/05/30 10:03:27;;;;;;;3.50;2.20;;;;;;;;;;4950754;28;20352;-61
2022/05/30 10:06:14;;;;;;;4.85;2.08;;;;;;;;;;4951041;28;20478;-62
2022/05/30 10:08:39;;;;;;;4.93;2.50;;;;;;;;;;4951167;28;20445;-63
2022/05/30 10:11:05;;;;;;;2.00;1.52;;;;;;;;;;4950841;28;20476;-62
2022/05/30 10:13:34;;;;;;;1.83;1.50;;;;;;;;;;4950442;28;20354;-62
2022/05/30 10:16:01;;;;;;;2.95;1.75;;;;;;;;;;4950256;28;20541;-63
2022/05/30 10:18:34;;;;;;;1.75;1.40;;;;;;;;;;4950873;28;20503;-61
2022/05/30 10:21:20;;;;;;;3.30;1.90;;;;;;;;;;4949264;28;20092;-62
2022/05/30 10:29:54;;;;;;;;;;;;;;;;;;4912677;28;20357;-62
2022/05/30 10:32:22;;;;;;;2.10;1.55;;;;;;;;;;4911927;28;20221;-62
2022/05/30 10:35:25;;;;;;;2.13;1.30;;;;;;;;;;4911770;28;20343;-62
2022/05/30 10:38:08;;;;;;;2.83;1.40;;;;;;;;;;4912327;28;20343;-62
2022/05/30 10:40:38;;;;;;;2.15;1.60;;;;;;;;;;4910355;28;20429;-63
2022/05/30 10:43:11;;;;;;;3.22;1.85;;;;;;;;;;4910082;28;20019;-62
2022/05/30 10:45:45;;;;;;;2.78;1.80;;;;;;;;;;4910300;28;20580;-62
2022/05/30 10:48:18;;;;;;;3.00;1.55;;;;;;;;;;4911845;28;20031;-62
2022/05/30 10:50:57;;;;;;;3.05;1.40;;;;;;;;;;4911024;28;20349;-62
2022/05/30 10:53:51;;;;;;;4.15;1.52;;;;;;;;;;4909665;28;20430;-62
2022/05/30 10:56:20;;;;;;;3.10;1.38;;;;;;;;;;4911897;28;20070;-62
2022/05/30 10:59:08;;;;;;;2.03;1.35;;;;;;;;;;4911689;28;20421;-62
2022/05/30 11:01:40;;;;;;;2.33;1.40;;;;;;;;;;4910860;28;20387;-63
2022/05/30 11:04:18;;;;;;;3.85;1.55;;;;;;;;;;4911526;28;20500;-62
2022/05/30 11:06:47;;;;;;;1.75;1.10;;;;;;;;;;4912249;28;20338;-62
2022/05/30 11:09:20;;;;;;;1.98;1.10;;;;;;;;;;4911163;28;20469;-63
2022/05/30 11:12:02;;;;;;;2.28;1.13;;;;;;;;;;4909936;28;20359;-62
2022/05/30 11:14:55;;;;;;;4.28;1.33;;;;;;;;;;4910998;28;20490;-62
2022/05/30 11:17:20;;;;;;;2.42;1.45;;;;;;;;;;4894944;28;20299;-63
2022/05/30 11:20:05;;;;;;;3.00;1.35;;;;;;;;;;4911076;28;20385;-62
2022/05/30 11:22:38;;;;;;;4.32;1.50;;;;;;;;;;4911385;28;20458;-62
2022/05/30 11:25:06;;;;;;;1.23;0.82;;;;;;;;;;4942492;28;20333;-62
2022/05/30 11:28:20;;;;;;;3.33;1.25;;;;;;;;;;4941286;28;20457;-62
2022/05/30 11:30:53;;;;;;;2.95;1.30;;;;;;;;;;4836404;28;20343;-62
2022/05/30 11:33:44;;;;;;;1.80;0.90;;;;;;;;;;4911099;28;20341;-62
2022/05/30 11:36:28;;;;;;;1.88;1.02;;;;;;;;;;4909134;28;20442;-62
2022/05/30 11:39:21;;;;;;;1.73;0.93;;;;;;;;;;4912557;28;20449;-62
2022/05/30 11:42:02;;;;;;;2.03;1.20;;;;;;;;;;4911202;28;20350;-61
2022/05/30 11:44:43;;;;;;;1.48;1.00;;;;;;;;;;4910626;28;20113;-62
2022/05/30 11:47:18;;;;;;;1.42;0.90;;;;;;;;;;4941821;28;20498;-62
2022/05/30 11:50:27;;;;;;;2.28;1.08;;;;;;;;;;4941799;28;20349;-61
2022/05/30 11:53:30;;;;;;;;;;;;;;;;;;4901562;28;20441;-62
2022/05/30 11:56:07;;;;;;;2.83;1.00;;;;;;;;;;4870544;29;20298;-62
2022/05/30 11:58:41;;;;;;;2.15;1.50;;;;;;;;;;4854842;29;20534;-62
2022/05/30 12:01:08;;;;;;;3.20;1.40;;;;;;;;;;4894695;28;20065;-62
2022/05/30 12:03:47;;;;;;;1.95;1.10;;;;;;;;;;4910436;28;20342;-63
2022/05/30 12:06:28;;;;;;;2.25;1.20;;;;;;;;;;4912661;28;20524;-62
2022/05/30 12:08:59;;;;;;;2.20;1.10;;;;;;;;;;4914498;28;20335;-62
2022/05/30 12:11:52;;;;;;;1.60;1.10;;;;;;;;;;4914273;28;20508;-62
2022/05/30 12:14:30;;;;;;;1.40;1.05;;;;;;;;;;4913079;28;20465;-62
2022/05/30 12:17:14;;;;;;;2.25;1.30;;;;;;;;;;4914548;28;20350;-62
2022/05/30 12:25:35;;;;;;;2.03;1.13;;;;;;;;;;4940081;28;20436;-62
2022/05/30 12:28:01;;;;;;;2.53;1.35;;;;;;;;;;4914131;28;20397;-62
2022/05/30 12:30:42;;;;;;;1.50;1.38;;;;;;;;;;4913754;28;20536;-62
2022/05/30 12:33:29;;;;;;;1.30;1.05;;;;;;;;;;4914025;28;20465;-63
2022/05/30 12:36:10;;;;;;;2.08;1.20;;;;;;;;;;4914544;28;20386;-62
2022/05/30 12:38:58;;;;;;;1.73;1.48;;;;;;;;;;4914161;28;20469;-62
2022/05/30 12:41:34;;;;;;;1.75;1.10;;;;;;;;;;4912449;28;20347;-62
2022/05/30 12:43:59;;;;;;;3.22;1.40;;;;;;;;;;4912441;28;20031;-61
2022/05/30 12:46:28;;;;;;;2.13;1.52;;;;;;;;;;4914056;28;20049;-61
2022/05/30 12:49:01;;;;;;;2.53;1.45;;;;;;;;;;4913563;28;20384;-62
2022/05/30 12:51:38;;;;;;;2.08;1.17;;;;;;;;;;4912205;28;20410;-62
2022/05/30 12:54:03;;;;;;;3.03;1.45;;;;;;;;;;4913888;28;20027;-62
2022/05/30 12:56:38;;;;;;;1.37;1.10;;;;;;;;;;4914322;28;20039;-63
2022/05/30 12:59:03;;;;;;;2.60;1.45;;;;;;;;;;4913425;28;20788;-63
2022/05/30 13:01:48;;;;;;;3.53;1.30;;;;;;;;;;4913474;28;20466;-62
2022/05/30 13:04:25;;;;;;;2.40;1.60;;;;;;;;;;4912204;28;20466;-63
2022/05/30 13:06:53;;;;;;;2.17;1.38;;;;;;;;;;4913782;28;20376;-62
2022/05/30 13:09:30;;;;;;;2.33;1.00;;;;;;;;;;4913501;28;20022;-63
2022/05/30 13:12:10;;;;;;;1.42;1.00;;;;;;;;;;4913448;28;20166;-62
2022/05/30 13:14:50;;;;;;;1.80;1.40;;;;;;;;;;4912830;28;20354;-62
2022/05/30 13:17:23;;;;;;;1.60;1.10;;;;;;;;;;4913361;28;20350;-62
2022/05/30 13:19:57;;;;;;;1.05;0.95;;;;;;;;;;4913039;28;20397;-62
2022/05/30 13:22:49;;;;;;;1.58;1.33;;;;;;;;;;4913490;28;20386;-63
2022/05/30 13:25:19;;;;;;;1.80;1.30;;;;;;;;;;4912002;28;20323;-63
2022/05/30 13:27:46;;;;;;;2.80;1.35;;;;;;;;;;4913070;28;20963;-63
2022/05/30 13:30:20;;;;;;;2.00;1.30;;;;;;;;;;4913593;28;20458;-62
2022/05/30 13:32:45;;;;;;;3.85;1.35;;;;;;;;;;4912826;28;20334;-62
2022/05/30 13:35:12;;;;;;;2.63;1.25;;;;;;;;;;4913119;28;20327;-62
2022/05/30 13:37:41;;;;;;;2.03;1.42;;;;;;;;;;4913110;28;20414;-62
2022/05/30 13:40:08;;;;;;;;;;;;;;;;;;4912971;28;20385;-62
2022/05/30 13:42:46;;;;;;;1.88;1.20;;;;;;;;;;4913228;28;20273;-62
2022/05/30 13:45:11;;;;;;;2.40;1.50;;;;;;;;;;4912525;28;20138;-63
2022/05/30 13:47:41;;;;;;;1.20;1.05;;;;;;;;;;4911188;28;20034;-62
2022/05/30 13:50:07;;;;;;;2.05;1.40;;;;;;;;;;4912808;28;20408;-62
2022/05/30 13:52:33;;;;;;;2.08;1.25;;;;;;;;;;4913493;28;20310;-64
2022/05/30 13:55:02;;;;;;;3.25;1.17;;;;;;;;;;4913139;28;20058;-62
2022/05/30 13:57:29;;;;;;;1.65;1.25;;;;;;;;;;4912258;28;20446;-62
2022/05/30 13:59:57;;;;;;;2.35;1.30;;;;;;;;;;4912901;28;20463;-61
2022/05/30 14:02:28;;;;;;;1.67;1.10;;;;;;;;;;4911950;28;20197;-62
2022/05/30 14:05:02;;;;;;;2.72;1.25;;;;;;;;;;4911024;28;20406;-63
2022/05/30 14:07:28;;;;;;;1.40;1.15;;;;;;;;;;4912757;28;20381;-64
2022/05/30 14:09:57;;;;;;;2.97;1.25;;;;;;;;;;4913395;28;20707;-63
2022/05/30 14:12:29;;;;;;;1.67;1.30;;;;;;;;;;4911807;28;20330;-62
2022/05/30 14:15:14;;;;;;;2.13;1.30;;;;;;;;;;4912468;28;20031;-62
2022/05/30 14:17:40;;;;;;;1.75;1.20;;;;;;;;;;4910537;28;20422;-62
2022/05/30 14:20:11;;;;;;;2.22;1.15;;;;;;;;;;4912227;28;20457;-62
2022/05/30 14:22:38;;;;;;;1.95;1.20;;;;;;;;;;4911966;28;20436;-63
2022/05/30 14:25:07;;;;;;;1.83;1.08;;;;;;;;;;4911864;28;20401;-62
2022/05/30 14:27:35;;;;;;;1.58;1.13;;;;;;;;;;4897421;28;20396;-62
2022/05/30 14:30:04;;;;;;;1.58;1.23;;;;;;;;;;4931134;28;20437;-62
2022/05/30 14:32:35;;;;;;;1.00;0.90;;;;;;;;;;4946039;28;20046;-62
2022/05/30 14:35:00;;;;;;;2.22;1.10;;;;;;;;;;4932149;28;20357;-62
2022/05/30 14:37:34;;;;;;;2.15;1.13;;;;;;;;;;4931259;28;20342;-62
2022/05/30 14:40:19;;;;;;;1.95;1.15;;;;;;;;;;4930122;28;20307;-62
2022/05/30 14:42:50;;;;;;;2.53;1.10;;;;;;;;;;4931425;28;20392;-62
2022/05/30 14:45:24;;;;;;;1.42;1.05;;;;;;;;;;4931127;28;20487;-62
2022/05/30 14:47:50;;;;;;;1.58;1.02;;;;;;;;;;4931477;28;20445;-62
2022/05/30 14:50:43;;;;;;;1.77;1.15;;;;;;;;;;4930874;28;20389;-63
2022/05/30 14:53:13;;;;;;;1.20;1.10;;;;;;;;;;4928492;28;20411;-62
2022/05/30 14:55:45;;;;;;;2.88;1.25;;;;;;;;;;4945267;28;20418;-62
2022/05/30 14:58:41;;;;;;;4.57;1.40;;;;;;;;;;4931380;28;20465;-61
2022/05/30 15:01:09;;;;;;;1.40;1.10;;;;;;;;;;4917125;28;20558;-62
2022/05/30 15:06:22;;;;;;;1.92;1.10;;;;;;;;;;4931328;28;20105;-62
2022/05/30 15:08:48;;;;;;;1.23;0.90;;;;;;;;;;4930358;28;20433;-63
2022/05/30 15:11:19;;;;;;;3.10;1.25;;;;;;;;;;4929066;28;20455;-62
2022/05/30 15:13:49;;;;;;;1.17;1.00;;;;;;;;;;4930396;28;20388;-62
2022/05/30 15:16:15;;;;;;;2.67;0.93;;;;;;;;;;4930256;28;20034;-63
2022/05/30 15:18:41;;;;;;;2.42;1.20;;;;;;;;;;4930573;28;20057;-63
2022/05/30 15:21:09;;;;;;;5.72;1.73;;;;;;;;;;4930506;28;20030;-63
2022/05/30 15:23:34;;;;;;;1.50;1.00;;;;;;;;;;4930475;28;20392;-63
2022/05/30 15:26:00;;;;;;;1.52;0.90;;;;;;;;;;4930566;28;20457;-62
2022/05/30 15:28:25;;;;;;;1.90;1.27;;;;;;;;;;4919266;28;20047;-63
2022/05/30 15:30:51;;;;;;;2.10;1.10;;;;;;;;;;4911409;28;20450;-62
2022/05/30 15:33:16;;;;;;;3.95;1.05;;;;;;;;;;4911002;28;20362;-63